Salt Lake City, Utah
Traffic Map
Current Weather Conditions
Salt Lake City, Utah
Broken Clouds
Broken Clouds
91°
Feels Like: 91°
Wind Chill: 91° Ceiling: 22000
Heat Index: 91° Visibility: 10mi
Dew Point: 25° Wind: 7mph
Humidity: 9% Direction: 310° (NW)
Pressure: 30.18in Gusts: 0mph
Raw Report DataKSLC 312053Z 31006KT 10SM FEW160 FEW190 BKN220 33/M04 A3018 RMK AO2 SLP163 ACSL DSNT NE AND SE T03281039 58016
Traffic Incident Summary
Active as of:
Severity:
Category:
InformationThere was an issue retrieving the traffic information for this location. Please try a different location or try again shortly.
Advertisements
Track Severe Weather on mobile